createdAt,value
2018-12-29T00:02:00.673Z,3.00
2018-12-29T00:04:42.919Z,3.00
2018-12-29T00:07:24.729Z,3.00
2018-12-29T00:10:06.467Z,3.00
2018-12-29T00:12:48.332Z,2.90
2018-12-29T00:15:30.064Z,2.90
2018-12-29T00:18:12.051Z,3.00
2018-12-29T00:20:53.553Z,2.90
2018-12-29T00:23:35.002Z,2.90
2018-12-29T00:26:16.873Z,2.90
2018-12-29T00:28:58.565Z,2.90
2018-12-29T00:31:40.657Z,2.90
2018-12-29T00:34:22.692Z,2.90
2018-12-29T00:37:04.267Z,2.80
2018-12-29T00:39:46.607Z,2.80
2018-12-29T00:42:28.382Z,2.90
2018-12-29T00:45:10.393Z,2.90
2018-12-29T00:47:52.252Z,2.90
2018-12-29T00:50:34.271Z,2.90
2018-12-29T00:53:16.163Z,2.90
2018-12-29T00:55:57.667Z,2.90
2018-12-29T00:58:39.580Z,2.90
2018-12-29T01:01:21.887Z,2.90
2018-12-29T01:04:03.732Z,2.90
2018-12-29T01:06:45.743Z,2.90
2018-12-29T01:09:27.955Z,2.90
2018-12-29T01:12:10.189Z,2.90
2018-12-29T01:14:52.516Z,2.90
2018-12-29T01:17:34.309Z,2.80
2018-12-29T01:20:16.188Z,2.80
2018-12-29T01:22:58.341Z,2.90
2018-12-29T01:25:40.433Z,2.80
2018-12-29T01:28:22.224Z,2.70
2018-12-29T01:31:04.048Z,2.70
2018-12-29T01:33:46.006Z,2.70
2018-12-29T01:36:28.152Z,2.70
2018-12-29T01:39:10.221Z,2.70
2018-12-29T01:41:52.097Z,2.80
2018-12-29T01:44:33.698Z,2.80
2018-12-29T01:47:15.386Z,2.80
2018-12-29T01:49:55.702Z,2.80
2018-12-29T01:52:44.947Z,2.80
2018-12-29T01:55:27.160Z,2.80
2018-12-29T01:58:09.396Z,2.80
2018-12-29T02:00:51.344Z,2.80
2018-12-29T02:03:33.918Z,2.80
2018-12-29T02:06:16.096Z,2.80
2018-12-29T02:08:57.962Z,2.80
2018-12-29T02:11:40.146Z,2.80
2018-12-29T02:14:22.007Z,2.80
2018-12-29T02:17:04.107Z,2.80
2018-12-29T02:19:46.048Z,2.80
2018-12-29T02:22:27.846Z,2.80
2018-12-29T02:25:09.843Z,2.80
2018-12-29T02:27:51.344Z,2.80
2018-12-29T02:30:33.362Z,2.80
2018-12-29T02:33:15.487Z,2.80
2018-12-29T02:35:57.337Z,2.70
2018-12-29T02:38:39.927Z,2.70
2018-12-29T02:41:21.763Z,2.80
2018-12-29T02:44:03.872Z,2.80
2018-12-29T02:46:45.976Z,2.80
2018-12-29T02:49:28.026Z,2.80
2018-12-29T02:52:09.812Z,2.80
2018-12-29T02:54:51.512Z,2.80
2018-12-29T02:57:33.598Z,2.80
2018-12-29T03:00:15.557Z,2.70
2018-12-29T03:02:57.711Z,2.70
2018-12-29T03:05:39.757Z,2.70
2018-12-29T03:08:21.721Z,2.70
2018-12-29T03:11:03.633Z,2.70
2018-12-29T03:13:45.437Z,2.70
2018-12-29T03:16:27.610Z,2.70
2018-12-29T03:19:09.631Z,2.60
2018-12-29T03:21:51.461Z,2.60
2018-12-29T03:24:33.170Z,2.60
2018-12-29T03:27:15.207Z,2.60
2018-12-29T03:29:56.915Z,2.60
2018-12-29T03:32:39.247Z,2.60
2018-12-29T03:35:21.284Z,2.50
2018-12-29T03:38:02.974Z,2.50
2018-12-29T03:40:44.691Z,2.60
2018-12-29T03:43:26.916Z,2.50
2018-12-29T03:46:08.548Z,2.60
2018-12-29T03:48:50.485Z,2.60
2018-12-29T03:51:32.401Z,2.50
2018-12-29T03:54:14.354Z,2.50
2018-12-29T03:56:55.704Z,2.50
2018-12-29T03:59:37.611Z,2.50
2018-12-29T04:02:19.510Z,2.50
2018-12-29T04:05:01.125Z,2.50
2018-12-29T04:07:43.085Z,2.50
2018-12-29T04:10:24.831Z,2.50
2018-12-29T04:13:06.652Z,2.50
2018-12-29T04:15:48.308Z,2.50
2018-12-29T04:18:30.440Z,2.50
2018-12-29T04:21:12.769Z,2.50
2018-12-29T04:23:54.495Z,2.50
2018-12-29T04:26:36.724Z,2.50
2018-12-29T04:29:18.708Z,2.60
2018-12-29T04:32:00.976Z,2.60
2018-12-29T04:34:42.761Z,2.60
2018-12-29T04:37:24.370Z,2.60
2018-12-29T04:40:04.918Z,2.70
2018-12-29T04:42:54.117Z,2.70
2018-12-29T04:45:35.802Z,2.70
2018-12-29T04:48:18.045Z,2.70
2018-12-29T04:50:59.744Z,2.70
2018-12-29T04:53:41.413Z,2.70
2018-12-29T04:56:23.146Z,2.70
2018-12-29T04:59:05.483Z,2.70
2018-12-29T05:01:47.944Z,2.70
2018-12-29T05:04:30.184Z,2.70
2018-12-29T05:07:12.206Z,2.70
2018-12-29T05:09:54.343Z,2.80
2018-12-29T05:12:36.171Z,2.80
2018-12-29T05:15:18.046Z,2.80
2018-12-29T05:18:00.018Z,2.80
2018-12-29T05:20:41.800Z,2.80
2018-12-29T05:23:23.231Z,2.80
2018-12-29T05:26:04.802Z,2.80
2018-12-29T05:28:46.538Z,2.80
2018-12-29T05:31:28.590Z,2.80
2018-12-29T05:34:09.918Z,2.80
2018-12-29T05:36:51.781Z,2.80
2018-12-29T05:39:33.440Z,2.70
2018-12-29T05:42:14.749Z,2.70
2018-12-29T05:44:57.370Z,2.70
2018-12-29T05:47:39.260Z,2.70
2018-12-29T05:50:21.140Z,2.70
2018-12-29T05:53:03.188Z,2.70
2018-12-29T05:55:45.014Z,2.70
2018-12-29T05:58:26.986Z,2.80
2018-12-29T06:01:09.226Z,2.80
2018-12-29T06:03:51.423Z,2.80
2018-12-29T06:06:33.241Z,2.80
2018-12-29T06:09:14.844Z,2.80
2018-12-29T06:11:56.689Z,2.80
2018-12-29T06:14:38.233Z,2.80
2018-12-29T06:17:20.400Z,2.80
2018-12-29T06:20:02.292Z,2.80
2018-12-29T06:22:43.834Z,2.80
2018-12-29T06:25:26.074Z,2.80
2018-12-29T06:28:07.862Z,2.80
2018-12-29T06:30:49.609Z,2.80
2018-12-29T06:33:31.656Z,2.80
2018-12-29T06:36:14.744Z,2.80
2018-12-29T06:38:57.051Z,2.80
2018-12-29T06:41:39.289Z,2.80
2018-12-29T06:44:21.190Z,2.80
2018-12-29T06:47:03.414Z,2.80
2018-12-29T06:49:45.145Z,2.80
2018-12-29T06:52:26.835Z,2.80
2018-12-29T06:55:08.966Z,2.90
2018-12-29T06:57:50.626Z,2.90
2018-12-29T07:00:32.571Z,2.90
2018-12-29T07:03:14.528Z,2.80
2018-12-29T07:05:56.250Z,2.80
2018-12-29T07:08:38.272Z,2.80
2018-12-29T07:11:20.596Z,2.80
2018-12-29T07:14:02.534Z,2.80
2018-12-29T07:16:44.422Z,2.80
2018-12-29T07:19:27.225Z,2.80
2018-12-29T07:22:08.904Z,2.80
2018-12-29T07:24:51.020Z,2.80
2018-12-29T07:27:33.324Z,2.80
2018-12-29T07:30:15.231Z,2.80
2018-12-29T07:32:57.522Z,2.90
2018-12-29T07:35:39.391Z,2.90
2018-12-29T07:38:21.514Z,2.90
2018-12-29T07:41:03.577Z,3.00
2018-12-29T07:43:45.406Z,3.00
2018-12-29T07:46:27.636Z,3.00
2018-12-29T07:49:09.360Z,3.00
2018-12-29T07:51:51.244Z,3.00
2018-12-29T07:54:33.670Z,3.00
2018-12-29T07:57:15.976Z,3.10
2018-12-29T07:59:58.975Z,3.10
2018-12-29T08:02:41.106Z,3.10
2018-12-29T08:05:22.950Z,3.20
2018-12-29T08:08:04.715Z,3.20
2018-12-29T08:10:46.099Z,3.20
2018-12-29T08:13:28.002Z,3.20
2018-12-29T08:16:09.709Z,3.20
2018-12-29T08:18:51.264Z,3.30
2018-12-29T08:21:33.415Z,3.30
2018-12-29T08:24:14.811Z,3.30
2018-12-29T08:26:56.652Z,3.40
2018-12-29T08:29:38.396Z,3.40
2018-12-29T08:32:20.596Z,3.50
2018-12-29T08:35:02.550Z,3.60
2018-12-29T08:37:44.613Z,3.70
2018-12-29T08:40:26.646Z,3.70
2018-12-29T08:43:08.835Z,3.70
2018-12-29T08:45:51.177Z,3.70
2018-12-29T08:48:33.122Z,3.70
2018-12-29T08:51:15.241Z,3.70
2018-12-29T08:53:57.411Z,3.70
2018-12-29T08:56:38.898Z,3.70
2018-12-29T08:59:21.022Z,3.70
2018-12-29T09:02:03.032Z,3.80
2018-12-29T09:04:45.224Z,3.80
2018-12-29T09:07:27.269Z,3.90
2018-12-29T09:10:09.198Z,3.90
2018-12-29T09:12:51.274Z,3.90
2018-12-29T09:15:34.342Z,3.90
2018-12-29T09:18:16.177Z,3.90
2018-12-29T09:20:59.244Z,4.00
2018-12-29T09:23:40.542Z,4.00
2018-12-29T09:26:23.698Z,4.00
2018-12-29T09:29:05.490Z,4.00
2018-12-29T09:31:47.710Z,4.00
2018-12-29T09:34:29.565Z,4.00
2018-12-29T09:37:11.420Z,4.00
2018-12-29T09:39:53.622Z,4.00
2018-12-29T09:42:35.367Z,4.00
2018-12-29T09:45:17.582Z,4.00
2018-12-29T09:47:59.436Z,4.00
2018-12-29T09:50:41.084Z,4.10
2018-12-29T09:53:23.082Z,4.10
2018-12-29T09:56:04.750Z,4.10
2018-12-29T09:58:46.668Z,4.10
2018-12-29T10:01:29.393Z,4.20
2018-12-29T10:04:11.637Z,4.10
2018-12-29T10:06:53.269Z,4.20
2018-12-29T10:09:35.526Z,4.20
2018-12-29T10:12:17.473Z,4.30
2018-12-29T10:15:00.678Z,4.40
2018-12-29T10:17:42.395Z,4.50
2018-12-29T10:20:24.579Z,4.50
2018-12-29T10:23:06.353Z,4.60
2018-12-29T10:25:49.051Z,4.60
2018-12-29T10:28:30.816Z,4.70
2018-12-29T10:31:12.924Z,4.70
2018-12-29T10:33:55.413Z,4.70
2018-12-29T10:36:37.323Z,4.70
2018-12-29T10:39:20.158Z,4.70
2018-12-29T10:42:02.105Z,4.70
2018-12-29T10:44:43.712Z,4.80
2018-12-29T10:47:25.924Z,4.80
2018-12-29T10:50:07.912Z,4.90
2018-12-29T10:52:49.730Z,4.90
2018-12-29T10:55:31.432Z,5.00
2018-12-29T10:58:13.858Z,5.00
2018-12-29T11:00:55.804Z,5.00
2018-12-29T11:03:37.743Z,5.10
2018-12-29T11:06:19.283Z,5.10
2018-12-29T11:09:01.059Z,5.10
2018-12-29T11:11:43.842Z,5.10
2018-12-29T11:14:25.802Z,5.10
2018-12-29T11:17:07.814Z,5.10
2018-12-29T11:19:49.363Z,5.10
2018-12-29T11:22:31.683Z,5.10
2018-12-29T11:25:13.992Z,5.10
2018-12-29T11:27:55.652Z,5.20
2018-12-29T11:30:37.728Z,5.20
2018-12-29T11:33:19.833Z,5.20
2018-12-29T11:36:01.682Z,5.30
2018-12-29T11:38:43.808Z,5.30
2018-12-29T11:41:25.938Z,5.40
2018-12-29T11:44:07.791Z,5.40
2018-12-29T11:46:49.670Z,5.50
2018-12-29T11:49:31.975Z,5.50
2018-12-29T11:52:14.397Z,5.60
2018-12-29T11:54:56.396Z,5.60
2018-12-29T11:57:38.382Z,5.60
2018-12-29T12:00:20.297Z,5.70
2018-12-29T12:03:02.557Z,5.70
2018-12-29T12:05:45.913Z,5.70
2018-12-29T12:08:27.627Z,5.70
2018-12-29T12:11:09.654Z,5.70
2018-12-29T12:13:51.742Z,5.60
2018-12-29T12:16:34.676Z,5.60
2018-12-29T12:19:16.039Z,5.60
2018-12-29T12:21:46.794Z,5.50
2018-12-29T12:24:36.492Z,5.50
2018-12-29T12:27:18.732Z,5.50
2018-12-29T12:30:02.127Z,5.50
2018-12-29T12:32:44.123Z,5.50
2018-12-29T12:35:26.346Z,5.50
2018-12-29T12:38:08.482Z,5.50
2018-12-29T12:40:50.677Z,5.50
2018-12-29T12:43:33.111Z,5.50
2018-12-29T12:46:15.416Z,5.60
2018-12-29T12:48:57.320Z,5.60
2018-12-29T12:51:39.477Z,5.60
2018-12-29T12:54:21.990Z,5.60
2018-12-29T12:57:03.908Z,5.60
2018-12-29T12:59:46.494Z,5.60
2018-12-29T13:02:28.258Z,5.60
2018-12-29T13:05:10.402Z,5.60
2018-12-29T13:07:52.194Z,5.50
2018-12-29T13:10:34.361Z,5.50
2018-12-29T13:13:15.892Z,5.50
2018-12-29T13:15:57.537Z,5.50
2018-12-29T13:18:39.493Z,5.50
2018-12-29T13:21:21.491Z,5.50
2018-12-29T13:24:03.576Z,5.50
2018-12-29T13:26:45.832Z,5.50
2018-12-29T13:29:27.716Z,5.50
2018-12-29T13:32:10.004Z,5.60
2018-12-29T13:34:51.935Z,5.60
2018-12-29T13:37:34.412Z,5.60
2018-12-29T13:40:16.245Z,5.60
2018-12-29T13:42:58.208Z,5.60
2018-12-29T13:45:40.420Z,5.60
2018-12-29T13:48:22.460Z,5.50
2018-12-29T13:51:04.923Z,5.50
2018-12-29T13:53:46.706Z,5.50
2018-12-29T13:56:28.723Z,5.50
2018-12-29T13:59:11.067Z,5.50
2018-12-29T14:01:52.975Z,5.50
2018-12-29T14:04:35.088Z,5.50
2018-12-29T14:07:17.039Z,5.50
2018-12-29T14:09:59.162Z,5.40
2018-12-29T14:12:40.928Z,5.50
2018-12-29T14:15:23.143Z,5.40
2018-12-29T14:18:05.007Z,5.40
2018-12-29T14:20:47.245Z,5.40
2018-12-29T14:23:29.087Z,5.40
2018-12-29T14:26:10.805Z,5.40
2018-12-29T14:28:52.799Z,5.40
2018-12-29T14:31:34.919Z,5.30
2018-12-29T14:34:16.872Z,5.30
2018-12-29T14:36:58.606Z,5.30
2018-12-29T14:39:40.268Z,5.30
2018-12-29T14:42:21.754Z,5.30
2018-12-29T14:45:04.058Z,5.30
2018-12-29T14:47:46.178Z,5.30
2018-12-29T14:50:28.039Z,5.30
2018-12-29T14:53:09.948Z,5.30
2018-12-29T14:55:52.227Z,5.30
2018-12-29T14:58:34.166Z,5.30
2018-12-29T15:01:16.334Z,5.20
2018-12-29T15:03:58.494Z,5.20
2018-12-29T15:06:40.607Z,5.20
2018-12-29T15:09:22.458Z,5.20
2018-12-29T15:12:03.999Z,5.20
2018-12-29T15:14:45.587Z,5.20
2018-12-29T15:17:27.823Z,5.20
2018-12-29T15:20:10.392Z,5.20
2018-12-29T15:22:52.253Z,5.20
2018-12-29T15:25:34.176Z,5.10
2018-12-29T15:28:16.557Z,5.10
2018-12-29T15:30:58.785Z,5.10
2018-12-29T15:33:41.035Z,5.10
2018-12-29T15:36:23.066Z,5.10
2018-12-29T15:39:05.334Z,5.00
2018-12-29T15:41:47.741Z,5.00
2018-12-29T15:44:30.991Z,5.10
2018-12-29T15:47:12.782Z,5.10
2018-12-29T15:49:54.500Z,5.10
2018-12-29T15:52:36.380Z,5.00
2018-12-29T15:55:18.053Z,5.10
2018-12-29T15:57:59.750Z,5.10
2018-12-29T16:00:41.718Z,5.10
2018-12-29T16:03:23.789Z,5.10
2018-12-29T16:06:06.152Z,5.10
2018-12-29T16:08:48.229Z,5.10
2018-12-29T16:11:29.982Z,5.10
2018-12-29T16:14:12.142Z,5.10
2018-12-29T16:16:54.200Z,5.10
2018-12-29T16:19:36.346Z,5.00
2018-12-29T16:22:18.664Z,5.00
2018-12-29T16:25:00.984Z,5.00
2018-12-29T16:27:42.907Z,5.00
2018-12-29T16:30:24.856Z,5.10
2018-12-29T16:33:06.801Z,5.10
2018-12-29T16:35:49.241Z,5.10
2018-12-29T16:38:30.840Z,5.10
2018-12-29T16:41:12.926Z,5.20
2018-12-29T16:43:55.024Z,5.20
2018-12-29T16:46:37.224Z,5.20
2018-12-29T16:49:19.012Z,5.20
2018-12-29T16:52:01.061Z,5.20
2018-12-29T16:54:42.976Z,5.30
2018-12-29T16:57:25.077Z,5.30
2018-12-29T17:00:06.994Z,5.30
2018-12-29T17:02:49.386Z,5.30
2018-12-29T17:05:31.683Z,5.30
2018-12-29T17:08:13.900Z,5.30
2018-12-29T17:10:56.368Z,5.30
2018-12-29T17:13:39.570Z,5.30
2018-12-29T17:16:21.510Z,5.20
2018-12-29T17:19:03.837Z,5.20
2018-12-29T17:21:45.704Z,5.20
2018-12-29T17:24:27.899Z,5.20
2018-12-29T17:27:10.489Z,5.20
2018-12-29T17:29:52.194Z,5.20
2018-12-29T17:32:34.375Z,5.20
2018-12-29T17:35:16.519Z,5.20
2018-12-29T17:37:58.590Z,5.20
2018-12-29T17:40:40.784Z,5.20
2018-12-29T17:43:22.951Z,5.20
2018-12-29T17:46:04.966Z,5.20
2018-12-29T17:48:46.504Z,5.20
2018-12-29T17:51:28.488Z,5.20
2018-12-29T17:54:10.760Z,5.20
2018-12-29T17:56:52.893Z,5.20
2018-12-29T17:59:34.838Z,5.20
2018-12-29T18:02:16.549Z,5.20
2018-12-29T18:04:58.466Z,5.20
2018-12-29T18:07:40.921Z,5.20
2018-12-29T18:10:23.017Z,5.20
2018-12-29T18:13:05.335Z,5.20
2018-12-29T18:15:47.755Z,5.20
2018-12-29T18:18:29.102Z,5.20
2018-12-29T18:21:11.623Z,5.20
2018-12-29T18:23:55.939Z,5.20
2018-12-29T18:26:38.252Z,5.20
2018-12-29T18:29:20.900Z,5.20
2018-12-29T18:32:03.435Z,5.30
2018-12-29T18:34:45.563Z,5.30
2018-12-29T18:37:27.408Z,5.30
2018-12-29T18:40:09.849Z,5.30
2018-12-29T18:42:51.910Z,5.30
2018-12-29T18:45:34.025Z,5.30
2018-12-29T18:48:16.494Z,5.30
2018-12-29T18:50:58.892Z,5.30
2018-12-29T18:53:40.931Z,5.40
2018-12-29T18:56:23.025Z,5.40
2018-12-29T18:59:05.032Z,5.40
2018-12-29T19:01:47.076Z,5.40
2018-12-29T19:04:29.204Z,5.40
2018-12-29T19:07:11.082Z,5.40
2018-12-29T19:09:53.187Z,5.50
2018-12-29T19:12:35.179Z,5.40
2018-12-29T19:15:18.556Z,5.40
2018-12-29T19:18:00.196Z,5.40
2018-12-29T19:20:42.673Z,5.50
2018-12-29T19:23:25.059Z,5.50
2018-12-29T19:26:07.153Z,5.50
2018-12-29T19:28:49.584Z,5.50
2018-12-29T19:31:31.862Z,5.50
2018-12-29T19:34:14.167Z,5.50
2018-12-29T19:36:56.056Z,5.50
2018-12-29T19:39:38.752Z,5.50
2018-12-29T19:42:20.333Z,5.50
2018-12-29T19:45:02.708Z,5.50
2018-12-29T19:47:45.817Z,5.50
2018-12-29T19:50:28.747Z,5.40
2018-12-29T19:53:10.932Z,5.40
2018-12-29T19:55:53.089Z,5.30
2018-12-29T19:58:34.987Z,5.30
2018-12-29T20:01:16.481Z,5.30
2018-12-29T20:03:58.523Z,5.30
2018-12-29T20:06:40.425Z,5.30
2018-12-29T20:09:22.540Z,5.30
2018-12-29T20:12:04.787Z,5.20
2018-12-29T20:14:46.948Z,5.20
2018-12-29T20:17:34.931Z,5.20
2018-12-29T20:20:12.715Z,5.20
2018-12-29T20:22:54.834Z,5.20
2018-12-29T20:25:36.428Z,5.20
2018-12-29T20:28:18.596Z,5.20
2018-12-29T20:31:00.642Z,5.20
2018-12-29T20:33:42.642Z,5.20
2018-12-29T20:36:24.732Z,5.20
2018-12-29T20:39:06.722Z,5.20
2018-12-29T20:41:48.687Z,5.20
2018-12-29T20:44:30.619Z,5.20
2018-12-29T20:47:12.422Z,5.30
2018-12-29T20:49:54.526Z,5.30
2018-12-29T20:52:36.124Z,5.30
2018-12-29T20:55:17.400Z,5.30
2018-12-29T20:57:59.622Z,5.20
2018-12-29T21:00:41.447Z,5.20
2018-12-29T21:03:23.519Z,5.20
2018-12-29T21:06:05.457Z,5.20
2018-12-29T21:08:48.031Z,5.20
2018-12-29T21:11:29.866Z,5.20
2018-12-29T21:14:12.508Z,5.20
2018-12-29T21:16:54.422Z,5.20
2018-12-29T21:19:36.731Z,5.20
2018-12-29T21:22:18.428Z,5.20
2018-12-29T21:25:00.458Z,5.20
2018-12-29T21:27:42.331Z,5.20
2018-12-29T21:30:23.054Z,5.20
2018-12-29T21:33:12.446Z,5.20
2018-12-29T21:35:54.418Z,5.20
2018-12-29T21:38:36.658Z,5.20
2018-12-29T21:41:19.045Z,5.20
2018-12-29T21:44:01.209Z,5.20
2018-12-29T21:46:43.447Z,5.10
2018-12-29T21:52:21.620Z,5.10
2018-12-29T21:55:03.530Z,5.10
2018-12-29T21:57:45.752Z,5.10
2018-12-29T22:00:30.715Z,5.10
2018-12-29T22:03:14.550Z,5.10
2018-12-29T22:05:56.638Z,5.10
2018-12-29T22:08:36.896Z,5.10
2018-12-29T22:11:26.370Z,5.10
2018-12-29T22:14:08.388Z,5.10
2018-12-29T22:16:50.727Z,5.10
2018-12-29T22:19:32.858Z,5.20
2018-12-29T22:22:15.929Z,5.20
2018-12-29T22:24:58.130Z,5.20
2018-12-29T22:27:40.099Z,5.10
2018-12-29T22:30:25.847Z,5.10
2018-12-29T22:33:06.458Z,5.20
2018-12-29T22:35:55.801Z,5.10
2018-12-29T22:38:37.637Z,5.10
2018-12-29T22:41:19.531Z,5.10
2018-12-29T22:44:01.910Z,5.20
2018-12-29T22:46:43.747Z,5.20
2018-12-29T22:49:25.907Z,5.20
2018-12-29T22:52:07.677Z,5.20
2018-12-29T22:54:49.465Z,5.30
2018-12-29T22:57:31.349Z,5.30
2018-12-29T23:03:28.188Z,5.30
2018-12-29T23:06:10.620Z,5.30
2018-12-29T23:08:52.680Z,5.30
2018-12-29T23:11:34.953Z,5.40
2018-12-29T23:14:17.081Z,5.40
2018-12-29T23:16:59.401Z,5.40
2018-12-29T23:19:42.522Z,5.40
2018-12-29T23:22:24.388Z,5.40
2018-12-29T23:25:06.393Z,5.40
2018-12-29T23:27:48.403Z,5.30
2018-12-29T23:30:30.411Z,5.30
2018-12-29T23:33:12.451Z,5.30
2018-12-29T23:35:54.270Z,5.30
2018-12-29T23:38:36.341Z,5.30
2018-12-29T23:41:18.382Z,5.40
2018-12-29T23:44:00.441Z,5.40
2018-12-29T23:46:50.003Z,5.40
2018-12-29T23:49:52.292Z,5.40
2018-12-29T23:52:34.192Z,5.40
2018-12-29T23:55:16.595Z,5.40
2018-12-29T23:57:58.625Z,5.40
